Terminal Aerodrome Forecast
Issued by NWS

Home | Current Version | Previous Version | Text Only | Print | Product List | Glossary On
Versions: 1 2 3 4 5 6 7 8 9 10 11 12 13
502
FTPA31 PHFO 251137
TAFHNY
TAF
PHNY 251137Z 2512/2612 05008KT P6SM SCT015 BKN250
     FM260000 05012KT P6SM SCT015 SCT035 BKN250
     FM260600 05005KT P6SM SCT015 BKN250
      AMD NOT SKED=

USA.gov is the U.S. government's official web portal to all federal, state and local government web resources and services.